DLH55R EDDL-EDDS
Flight info
| Callsign | DLH55R |
|---|---|
| Flight time | 0h 44m |
| Altitude | 23000 |
| Route | KUMIK7T KUMIK L603 BOMBI N850 KRH T128 BADSO BADSO2A |
| Aircraft | A320/M-SDE3FGHIRWY/LB1 |
Departure
| Time | 2026-05-04 21:33 |
|---|---|
| Airport | Düsseldorf Airport (EDDL) |
Arrival
| Time | 2026-05-04 22:18 |
|---|---|
| Airport | Stuttgart Airport (EDDS) |
| Time | Latitude | Longitude | Altitude | Speed | Heading |
|---|---|---|---|---|---|
| 2026-05-04 20:50 | 51.28049 | 6.76372 | 123 ft | 0 kts | 197° |
| 2026-05-04 21:22 | 51.28055 | 6.76375 | 128 ft | 4 kts | 200° |
| 2026-05-04 21:22 | 51.28077 | 6.76396 | 123 ft | 4 kts | 240° |
| 2026-05-04 21:23 | 51.28081 | 6.76429 | 122 ft | 4 kts | 307° |
| 2026-05-04 21:23 | 51.28076 | 6.76438 | 122 ft | 0 kts | 327° |
| 2026-05-04 21:28 | 51.28081 | 6.76433 | 128 ft | 6 kts | 327° |
| 2026-05-04 21:28 | 51.28142 | 6.76326 | 127 ft | 11 kts | 298° |
| 2026-05-04 21:28 | 51.28193 | 6.76244 | 126 ft | 10 kts | 325° |
| 2026-05-04 21:28 | 51.28253 | 6.76279 | 125 ft | 12 kts | 53° |
| 2026-05-04 21:29 | 51.28309 | 6.76396 | 121 ft | 18 kts | 52° |
| 2026-05-04 21:29 | 51.28400 | 6.76588 | 121 ft | 22 kts | 53° |
| 2026-05-04 21:29 | 51.28495 | 6.76785 | 127 ft | 22 kts | 53° |
| 2026-05-04 21:29 | 51.28587 | 6.76981 | 132 ft | 22 kts | 52° |
| 2026-05-04 21:30 | 51.28683 | 6.77181 | 132 ft | 24 kts | 53° |
| 2026-05-04 21:30 | 51.28786 | 6.77398 | 125 ft | 26 kts | 52° |
| 2026-05-04 21:30 | 51.28899 | 6.77635 | 129 ft | 27 kts | 53° |
| 2026-05-04 21:30 | 51.29014 | 6.77877 | 134 ft | 27 kts | 53° |
| 2026-05-04 21:31 | 51.29186 | 6.78236 | 134 ft | 11 kts | 53° |
| 2026-05-04 21:31 | 51.29237 | 6.78345 | 133 ft | 16 kts | 52° |
| 2026-05-04 21:31 | 51.29314 | 6.78505 | 134 ft | 18 kts | 52° |
| 2026-05-04 21:32 | 51.29387 | 6.78575 | 133 ft | 12 kts | 6° |
| 2026-05-04 21:32 | 51.29467 | 6.78566 | 134 ft | 10 kts | 354° |
| 2026-05-04 21:32 | 51.29519 | 6.78482 | 134 ft | 13 kts | 268° |
| 2026-05-04 21:32 | 51.29464 | 6.78352 | 133 ft | 16 kts | 233° |
| 2026-05-04 21:33 | 51.29296 | 6.78000 | 135 ft | 76 kts | 232° |
| 2026-05-04 21:33 | 51.28838 | 6.77041 | 125 ft | 138 kts | 232° |
| 2026-05-04 21:33 | 51.28173 | 6.75677 | 452 ft | 159 kts | 232° |
| 2026-05-04 21:33 | 51.27511 | 6.74270 | 1202 ft | 158 kts | 232° |
| 2026-05-04 21:34 | 51.26817 | 6.72787 | 1614 ft | 178 kts | 232° |
| 2026-05-04 21:34 | 51.26030 | 6.71094 | 1927 ft | 201 kts | 232° |
| 2026-05-04 21:34 | 51.25168 | 6.69232 | 2304 ft | 222 kts | 232° |
| 2026-05-04 21:34 | 51.24203 | 6.67155 | 2788 ft | 244 kts | 232° |
| 2026-05-04 21:35 | 51.23126 | 6.64978 | 3557 ft | 254 kts | 223° |
| 2026-05-04 21:35 | 51.21570 | 6.63643 | 4408 ft | 260 kts | 190° |
| 2026-05-04 21:35 | 51.19741 | 6.63665 | 5303 ft | 265 kts | 175° |
| 2026-05-04 21:35 | 51.17920 | 6.63957 | 6234 ft | 268 kts | 174° |
| 2026-05-04 21:36 | 51.16062 | 6.64385 | 7103 ft | 272 kts | 163° |
| 2026-05-04 21:36 | 51.14408 | 6.65865 | 7938 ft | 278 kts | 138° |
| 2026-05-04 21:36 | 51.13329 | 6.68456 | 8850 ft | 287 kts | 112° |
| 2026-05-04 21:36 | 51.13097 | 6.71651 | 9703 ft | 297 kts | 89° |
| 2026-05-04 21:37 | 51.13222 | 6.74988 | 10332 ft | 309 kts | 89° |
| 2026-05-04 21:37 | 51.13365 | 6.78493 | 10591 ft | 333 kts | 89° |
| 2026-05-04 21:37 | 51.13523 | 6.82319 | 10841 ft | 355 kts | 89° |
| 2026-05-04 21:37 | 51.13518 | 6.86301 | 11402 ft | 361 kts | 101° |
| 2026-05-04 21:38 | 51.12756 | 6.90099 | 12069 ft | 361 kts | 121° |
| 2026-05-04 21:38 | 51.11254 | 6.93277 | 12767 ft | 360 kts | 140° |
| 2026-05-04 21:38 | 51.09194 | 6.95496 | 13470 ft | 359 kts | 155° |
| 2026-05-04 21:38 | 51.06958 | 6.97324 | 14182 ft | 363 kts | 155° |
| 2026-05-04 21:39 | 51.04725 | 6.99134 | 14823 ft | 366 kts | 155° |
| 2026-05-04 21:39 | 51.02446 | 7.00976 | 15475 ft | 369 kts | 155° |
| 2026-05-04 21:39 | 51.00143 | 7.02840 | 16118 ft | 372 kts | 155° |
| 2026-05-04 21:39 | 50.97824 | 7.04719 | 16748 ft | 375 kts | 155° |
| 2026-05-04 21:40 | 50.95494 | 7.06607 | 17371 ft | 378 kts | 156° |
| 2026-05-04 21:40 | 50.93140 | 7.08514 | 17971 ft | 381 kts | 156° |
| 2026-05-04 21:40 | 50.90770 | 7.10431 | 18541 ft | 384 kts | 156° |
| 2026-05-04 21:40 | 50.88384 | 7.12364 | 19064 ft | 386 kts | 156° |
| 2026-05-04 21:41 | 50.86009 | 7.14284 | 19587 ft | 389 kts | 156° |
| 2026-05-04 21:41 | 50.83587 | 7.16233 | 20107 ft | 391 kts | 156° |
| 2026-05-04 21:41 | 50.81147 | 7.18192 | 20618 ft | 394 kts | 156° |
| 2026-05-04 21:41 | 50.78691 | 7.20165 | 21118 ft | 396 kts | 156° |
| 2026-05-04 21:42 | 50.76243 | 7.22129 | 21594 ft | 399 kts | 156° |
| 2026-05-04 21:42 | 50.73752 | 7.24125 | 22091 ft | 402 kts | 156° |
| 2026-05-04 21:42 | 50.71243 | 7.26137 | 22568 ft | 405 kts | 156° |
| 2026-05-04 21:42 | 50.68720 | 7.28163 | 22933 ft | 407 kts | 156° |
| 2026-05-04 21:43 | 50.66204 | 7.30177 | 23006 ft | 415 kts | 156° |
| 2026-05-04 21:43 | 50.63600 | 7.32253 | 22999 ft | 422 kts | 156° |
| 2026-05-04 21:43 | 50.60969 | 7.34354 | 23004 ft | 424 kts | 156° |
| 2026-05-04 21:43 | 50.58332 | 7.36458 | 23000 ft | 424 kts | 156° |
| 2026-05-04 21:44 | 50.55691 | 7.38558 | 22998 ft | 424 kts | 156° |
| 2026-05-04 21:44 | 50.53092 | 7.40621 | 22999 ft | 424 kts | 156° |
| 2026-05-04 21:44 | 50.50443 | 7.42719 | 23003 ft | 424 kts | 156° |
| 2026-05-04 21:44 | 50.47800 | 7.44814 | 22993 ft | 427 kts | 156° |
| 2026-05-04 21:45 | 50.45173 | 7.46896 | 23005 ft | 429 kts | 156° |
| 2026-05-04 21:45 | 50.42498 | 7.49015 | 23001 ft | 429 kts | 156° |
| 2026-05-04 21:45 | 50.39830 | 7.51122 | 22997 ft | 429 kts | 156° |
| 2026-05-04 21:45 | 50.37156 | 7.53231 | 23000 ft | 429 kts | 156° |
| 2026-05-04 21:46 | 50.34485 | 7.55332 | 22999 ft | 429 kts | 156° |
| 2026-05-04 21:46 | 50.31816 | 7.57426 | 23002 ft | 428 kts | 156° |
| 2026-05-04 21:46 | 50.29181 | 7.59489 | 23000 ft | 428 kts | 156° |
| 2026-05-04 21:46 | 50.26513 | 7.61578 | 22998 ft | 428 kts | 156° |
| 2026-05-04 21:47 | 50.23840 | 7.63673 | 22994 ft | 428 kts | 156° |
| 2026-05-04 21:47 | 50.21177 | 7.65760 | 22994 ft | 428 kts | 156° |
| 2026-05-04 21:47 | 50.18506 | 7.67845 | 22994 ft | 428 kts | 156° |
| 2026-05-04 21:47 | 50.15843 | 7.69922 | 22984 ft | 428 kts | 156° |
| 2026-05-04 21:48 | 50.13180 | 7.71996 | 22987 ft | 427 kts | 156° |
| 2026-05-04 21:48 | 50.10552 | 7.74042 | 22989 ft | 427 kts | 156° |
| 2026-05-04 21:48 | 50.07885 | 7.76116 | 22986 ft | 427 kts | 156° |
| 2026-05-04 21:48 | 50.05227 | 7.78183 | 22965 ft | 427 kts | 156° |
| 2026-05-04 21:49 | 50.02564 | 7.80254 | 22973 ft | 427 kts | 156° |
| 2026-05-04 21:49 | 49.99899 | 7.82328 | 22976 ft | 427 kts | 156° |
| 2026-05-04 21:49 | 49.97271 | 7.84364 | 22977 ft | 427 kts | 156° |
| 2026-05-04 21:49 | 49.94603 | 7.86424 | 22975 ft | 427 kts | 156° |
| 2026-05-04 21:50 | 49.91938 | 7.88479 | 22968 ft | 427 kts | 156° |
| 2026-05-04 21:50 | 49.89274 | 7.90532 | 22971 ft | 427 kts | 156° |
| 2026-05-04 21:50 | 49.86614 | 7.92578 | 22969 ft | 427 kts | 156° |
| 2026-05-04 21:50 | 49.83951 | 7.94625 | 22972 ft | 426 kts | 156° |
| 2026-05-04 21:51 | 49.81322 | 7.96643 | 22975 ft | 426 kts | 156° |
| 2026-05-04 21:51 | 49.78654 | 7.98688 | 22969 ft | 426 kts | 156° |
| 2026-05-04 21:51 | 49.75988 | 8.00731 | 22969 ft | 426 kts | 156° |
| 2026-05-04 21:51 | 49.73328 | 8.02768 | 22967 ft | 426 kts | 156° |
| 2026-05-04 21:52 | 49.70692 | 8.04780 | 22969 ft | 426 kts | 156° |
| 2026-05-04 21:52 | 49.68027 | 8.06807 | 22968 ft | 426 kts | 156° |
| 2026-05-04 21:52 | 49.65367 | 8.08828 | 22970 ft | 426 kts | 156° |
| 2026-05-04 21:52 | 49.62713 | 8.10848 | 22971 ft | 426 kts | 156° |
| 2026-05-04 21:53 | 49.60046 | 8.12880 | 22967 ft | 426 kts | 156° |
| 2026-05-04 21:53 | 49.57390 | 8.14902 | 22969 ft | 426 kts | 156° |
| 2026-05-04 21:53 | 49.54753 | 8.16905 | 22969 ft | 426 kts | 156° |
| 2026-05-04 21:53 | 49.52097 | 8.18918 | 22971 ft | 426 kts | 156° |
| 2026-05-04 21:54 | 49.49434 | 8.20936 | 22972 ft | 426 kts | 156° |
| 2026-05-04 21:54 | 49.46775 | 8.22951 | 22974 ft | 426 kts | 156° |
| 2026-05-04 21:54 | 49.44114 | 8.24958 | 22968 ft | 426 kts | 156° |
| 2026-05-04 21:54 | 49.41443 | 8.26969 | 22970 ft | 426 kts | 156° |
| 2026-05-04 21:55 | 49.38806 | 8.28954 | 22974 ft | 426 kts | 156° |
| 2026-05-04 21:55 | 49.36141 | 8.30961 | 22975 ft | 427 kts | 156° |
| 2026-05-04 21:55 | 49.33470 | 8.32968 | 22976 ft | 427 kts | 156° |
| 2026-05-04 21:55 | 49.30791 | 8.34975 | 22976 ft | 427 kts | 156° |
| 2026-05-04 21:56 | 49.28122 | 8.36973 | 22977 ft | 427 kts | 156° |
| 2026-05-04 21:56 | 49.25444 | 8.38978 | 22974 ft | 427 kts | 156° |
| 2026-05-04 21:56 | 49.22807 | 8.40950 | 22975 ft | 427 kts | 156° |
| 2026-05-04 21:56 | 49.20132 | 8.42947 | 22967 ft | 427 kts | 156° |
| 2026-05-04 21:57 | 49.17462 | 8.44941 | 22968 ft | 428 kts | 156° |
| 2026-05-04 21:57 | 49.14779 | 8.46941 | 22969 ft | 428 kts | 156° |
| 2026-05-04 21:57 | 49.12090 | 8.48942 | 22973 ft | 429 kts | 156° |
| 2026-05-04 21:57 | 49.09397 | 8.50940 | 22975 ft | 429 kts | 156° |
| 2026-05-04 21:58 | 49.06737 | 8.52911 | 22977 ft | 430 kts | 156° |
| 2026-05-04 21:58 | 49.04044 | 8.54903 | 22978 ft | 430 kts | 156° |
| 2026-05-04 21:58 | 49.01336 | 8.56838 | 22978 ft | 429 kts | 160° |
| 2026-05-04 21:58 | 48.98496 | 8.58206 | 22980 ft | 426 kts | 169° |
| 2026-05-04 21:59 | 48.95557 | 8.58864 | 22980 ft | 424 kts | 177° |
| 2026-05-04 21:59 | 48.92585 | 8.59285 | 23061 ft | 432 kts | 172° |
| 2026-05-04 21:59 | 48.89706 | 8.60654 | 23006 ft | 450 kts | 155° |
| 2026-05-04 21:59 | 48.87115 | 8.63444 | 23009 ft | 465 kts | 137° |
| 2026-05-04 22:00 | 48.85176 | 8.67446 | 23004 ft | 472 kts | 118° |
| 2026-05-04 22:00 | 48.84192 | 8.72090 | 23009 ft | 458 kts | 100° |
| 2026-05-04 22:00 | 48.84179 | 8.76905 | 22997 ft | 458 kts | 83° |
| 2026-05-04 22:00 | 48.84746 | 8.81689 | 23001 ft | 459 kts | 81° |
| 2026-05-04 22:01 | 48.85343 | 8.86399 | 22999 ft | 459 kts | 81° |
| 2026-05-04 22:01 | 48.85956 | 8.91151 | 22995 ft | 459 kts | 81° |
| 2026-05-04 22:01 | 48.86569 | 8.95906 | 22989 ft | 459 kts | 81° |
| 2026-05-04 22:01 | 48.87181 | 9.00690 | 22988 ft | 459 kts | 81° |
| 2026-05-04 22:02 | 48.87780 | 9.05452 | 22988 ft | 458 kts | 81° |
| 2026-05-04 22:02 | 48.88373 | 9.10216 | 22986 ft | 458 kts | 81° |
| 2026-05-04 22:02 | 48.88854 | 9.14908 | 22976 ft | 447 kts | 90° |
| 2026-05-04 22:02 | 48.88573 | 9.19519 | 22518 ft | 432 kts | 107° |
| 2026-05-04 22:03 | 48.87320 | 9.23645 | 21332 ft | 431 kts | 129° |
| 2026-05-04 22:03 | 48.85142 | 9.26725 | 20280 ft | 428 kts | 152° |
| 2026-05-04 22:03 | 48.82391 | 9.28236 | 19573 ft | 418 kts | 174° |
| 2026-05-04 22:03 | 48.79571 | 9.28164 | 19100 ft | 405 kts | 191° |
| 2026-05-04 22:04 | 48.76929 | 9.26860 | 18622 ft | 396 kts | 207° |
| 2026-05-04 22:04 | 48.74710 | 9.24441 | 18142 ft | 389 kts | 225° |
| 2026-05-04 22:04 | 48.73156 | 9.21127 | 17666 ft | 384 kts | 243° |
| 2026-05-04 22:04 | 48.72398 | 9.17324 | 17246 ft | 380 kts | 261° |
| 2026-05-04 22:05 | 48.72459 | 9.13342 | 16787 ft | 379 kts | 279° |
| 2026-05-04 22:05 | 48.73345 | 9.09594 | 16318 ft | 379 kts | 296° |
| 2026-05-04 22:05 | 48.74671 | 9.06101 | 15456 ft | 384 kts | 292° |
| 2026-05-04 22:05 | 48.75240 | 9.02231 | 14984 ft | 373 kts | 268° |
| 2026-05-04 22:06 | 48.74849 | 8.98388 | 14465 ft | 367 kts | 252° |
| 2026-05-04 22:06 | 48.73972 | 8.94826 | 13907 ft | 364 kts | 245° |
| 2026-05-04 22:06 | 48.72919 | 8.91325 | 13304 ft | 363 kts | 244° |
| 2026-05-04 22:06 | 48.71900 | 8.87838 | 12710 ft | 360 kts | 246° |
| 2026-05-04 22:07 | 48.70990 | 8.84303 | 12110 ft | 358 kts | 249° |
| 2026-05-04 22:07 | 48.70194 | 8.80735 | 11491 ft | 357 kts | 251° |
| 2026-05-04 22:07 | 48.69487 | 8.77187 | 10926 ft | 354 kts | 252° |
| 2026-05-04 22:07 | 48.68828 | 8.73675 | 10776 ft | 338 kts | 252° |
| 2026-05-04 22:08 | 48.68207 | 8.70324 | 10668 ft | 323 kts | 251° |
| 2026-05-04 22:08 | 48.67609 | 8.67118 | 10544 ft | 309 kts | 251° |
| 2026-05-04 22:08 | 48.67004 | 8.64064 | 10422 ft | 295 kts | 245° |
| 2026-05-04 22:08 | 48.65928 | 8.61545 | 10300 ft | 279 kts | 223° |
| 2026-05-04 22:09 | 48.64343 | 8.59976 | 10128 ft | 270 kts | 200° |
| 2026-05-04 22:09 | 48.62520 | 8.59492 | 10045 ft | 271 kts | 180° |
| 2026-05-04 22:09 | 48.60670 | 8.60041 | 9759 ft | 274 kts | 162° |
| 2026-05-04 22:09 | 48.59066 | 8.61633 | 9240 ft | 284 kts | 135° |
| 2026-05-04 22:10 | 48.58366 | 8.63331 | 8927 ft | 292 kts | 113° |
| 2026-05-04 22:10 | 48.58183 | 8.66396 | 8492 ft | 300 kts | 83° |
| 2026-05-04 22:10 | 48.58646 | 8.69482 | 8037 ft | 300 kts | 76° |
| 2026-05-04 22:10 | 48.59273 | 8.72441 | 7638 ft | 288 kts | 71° |
| 2026-05-04 22:11 | 48.59942 | 8.75212 | 7299 ft | 273 kts | 74° |
| 2026-05-04 22:11 | 48.60477 | 8.77861 | 6962 ft | 261 kts | 76° |
| 2026-05-04 22:11 | 48.60970 | 8.80445 | 6629 ft | 250 kts | 76° |
| 2026-05-04 22:11 | 48.61446 | 8.82914 | 6311 ft | 240 kts | 75° |
| 2026-05-04 22:12 | 48.61908 | 8.85299 | 5979 ft | 234 kts | 75° |
| 2026-05-04 22:12 | 48.62361 | 8.87641 | 5673 ft | 228 kts | 75° |
| 2026-05-04 22:12 | 48.62940 | 8.90635 | 5269 ft | 220 kts | 75° |
| 2026-05-04 22:12 | 48.63223 | 8.92099 | 5068 ft | 216 kts | 75° |
| 2026-05-04 22:13 | 48.63635 | 8.94235 | 4816 ft | 205 kts | 75° |
| 2026-05-04 22:13 | 48.64025 | 8.96259 | 4544 ft | 196 kts | 74° |
| 2026-05-04 22:13 | 48.64394 | 8.98176 | 4262 ft | 183 kts | 74° |
| 2026-05-04 22:13 | 48.64738 | 8.99962 | 4011 ft | 171 kts | 73° |
| 2026-05-04 22:14 | 48.65055 | 9.01612 | 3836 ft | 157 kts | 73° |
| 2026-05-04 22:14 | 48.65350 | 9.03150 | 3573 ft | 149 kts | 73° |
| 2026-05-04 22:14 | 48.65638 | 9.04647 | 3343 ft | 148 kts | 73° |
| 2026-05-04 22:14 | 48.65921 | 9.06135 | 3169 ft | 144 kts | 72° |
| 2026-05-04 22:15 | 48.66201 | 9.07610 | 3019 ft | 147 kts | 72° |
| 2026-05-04 22:15 | 48.66490 | 9.09108 | 2829 ft | 149 kts | 72° |
| 2026-05-04 22:15 | 48.66775 | 9.10589 | 2634 ft | 148 kts | 73° |
| 2026-05-04 22:15 | 48.67057 | 9.12060 | 2421 ft | 144 kts | 72° |
| 2026-05-04 22:16 | 48.67337 | 9.13518 | 2228 ft | 144 kts | 73° |
| 2026-05-04 22:16 | 48.67614 | 9.14976 | 2057 ft | 144 kts | 73° |
| 2026-05-04 22:16 | 48.67893 | 9.16440 | 1864 ft | 145 kts | 73° |
| 2026-05-04 22:16 | 48.68171 | 9.17901 | 1679 ft | 142 kts | 73° |
| 2026-05-04 22:17 | 48.68438 | 9.19307 | 1480 ft | 140 kts | 74° |
| 2026-05-04 22:17 | 48.68705 | 9.20712 | 1310 ft | 139 kts | 73° |
| 2026-05-04 22:17 | 48.68959 | 9.22035 | 1251 ft | 113 kts | 74° |
| 2026-05-04 22:17 | 48.69127 | 9.22928 | 1218 ft | 63 kts | 74° |
| 2026-05-04 22:18 | 48.69201 | 9.23320 | 1211 ft | 20 kts | 74° |
| 2026-05-04 22:18 | 48.69267 | 9.23518 | 1207 ft | 23 kts | 55° |
| 2026-05-04 22:18 | 48.69357 | 9.23659 | 1204 ft | 14 kts | 44° |
| 2026-05-04 22:18 | 48.69414 | 9.23733 | 1206 ft | 8 kts | 31° |
| 2026-05-04 22:19 | 48.69453 | 9.23749 | 1207 ft | 4 kts | 360° |
| 2026-05-04 22:19 | 48.69501 | 9.23712 | 1210 ft | 13 kts | 316° |
| 2026-05-04 22:19 | 48.69522 | 9.23631 | 1213 ft | 6 kts | 266° |
| 2026-05-04 22:19 | 48.69510 | 9.23568 | 1214 ft | 10 kts | 252° |
| 2026-05-04 22:20 | 48.69491 | 9.23474 | 1216 ft | 8 kts | 254° |
| 2026-05-04 22:20 | 48.69470 | 9.23365 | 1218 ft | 18 kts | 254° |
| 2026-05-04 22:20 | 48.69436 | 9.23183 | 1222 ft | 18 kts | 254° |
| 2026-05-04 22:20 | 48.69402 | 9.23006 | 1226 ft | 17 kts | 254° |
| 2026-05-04 22:21 | 48.69366 | 9.22812 | 1229 ft | 24 kts | 254° |
| 2026-05-04 22:21 | 48.69319 | 9.22568 | 1250 ft | 24 kts | 254° |
| 2026-05-04 22:21 | 48.69275 | 9.22332 | 1245 ft | 23 kts | 254° |
| 2026-05-04 22:21 | 48.69231 | 9.22101 | 1251 ft | 22 kts | 254° |
| 2026-05-04 22:22 | 48.69189 | 9.21879 | 1257 ft | 22 kts | 254° |
| 2026-05-04 22:22 | 48.69148 | 9.21663 | 1267 ft | 21 kts | 254° |
| 2026-05-04 22:22 | 48.69109 | 9.21457 | 1260 ft | 20 kts | 254° |
| 2026-05-04 22:22 | 48.69070 | 9.21255 | 1268 ft | 20 kts | 254° |
| 2026-05-04 22:23 | 48.69033 | 9.21060 | 1277 ft | 19 kts | 254° |
| 2026-05-04 22:23 | 48.68997 | 9.20870 | 1274 ft | 18 kts | 254° |
| 2026-05-04 22:23 | 48.68963 | 9.20687 | 1278 ft | 18 kts | 254° |
| 2026-05-04 22:23 | 48.68929 | 9.20512 | 1285 ft | 17 kts | 254° |
| 2026-05-04 22:24 | 48.68898 | 9.20349 | 1287 ft | 16 kts | 254° |
| 2026-05-04 22:24 | 48.68870 | 9.20197 | 1291 ft | 14 kts | 254° |
| 2026-05-04 22:24 | 48.68844 | 9.20063 | 1294 ft | 12 kts | 254° |
| 2026-05-04 22:24 | 48.68817 | 9.19972 | 1295 ft | 8 kts | 246° |
| 2026-05-04 22:25 | 48.68820 | 9.19915 | 1297 ft | 5 kts | 302° |
| 2026-05-04 22:25 | 48.68855 | 9.19888 | 1300 ft | 3 kts | 343° |
| 2026-05-04 22:25 | 48.68886 | 9.19866 | 1303 ft | 10 kts | 316° |
| 2026-05-04 22:25 | 48.68882 | 9.19764 | 1306 ft | 8 kts | 247° |
| 2026-05-04 22:26 | 48.68867 | 9.19703 | 1308 ft | 6 kts | 255° |
| 2026-05-04 22:26 | 48.68846 | 9.19592 | 1310 ft | 12 kts | 254° |
| 2026-05-04 22:26 | 48.68825 | 9.19481 | 1312 ft | 9 kts | 254° |
| 2026-05-04 22:26 | 48.68810 | 9.19402 | 1313 ft | 8 kts | 254° |
| 2026-05-04 22:27 | 48.68804 | 9.19319 | 1314 ft | 5 kts | 302° |
| 2026-05-04 22:27 | 48.68829 | 9.19306 | 1315 ft | 2 kts | 343° |
| 2026-05-04 22:27 | 48.68839 | 9.19302 | 1315 ft | 3 kts | 343° |
| 2026-05-04 22:27 | 48.68861 | 9.19293 | 1315 ft | 3 kts | 345° |
| 2026-05-04 22:28 | 48.68872 | 9.19288 | 1315 ft | 0 kts | 344° |